Vance Air Force Base
KEND : now visible

Airfield :











YOU CAN JOIN US ON...

 
LOGIN :

Register | Disclaimer

   EN    FR    IT 

 









Legend :    VFR   Marginal VFR   IFR   Intensive IFR   Very Intensive IFR
Visi :
Ceiling :
>= 8 km
>= 3000ft
5 to 8 km
1000 to 3000 ft
1500m to 5 km
500 to 1000 ft
800 to 1500m
200 to 500 ft
< 800m
< 200 ft
Symbols :   Thunderstorms  Fog  Heavy snow  Heavy precipitations  Wind > 20 kt







- Airport Elevation : 1307 ft


KEND - Vance Air Force Base

CURRENT METAR :
  • 190956Z AUTO 14007KT 10SM CLR 26/25 A2990 RMK AO2 SLP109 T02560245 $

EXPIRED METARs :
  • 190856Z AUTO 14007KT 10SM CLR 26/25 A2989 RMK AO2 SLP106 T02590248 55003 $
  • 190756Z AUTO 14008KT 10SM CLR 26/26 A2988 RMK AO2 SLP103 T02630257 $

TAF TAF KEND
Valid from the 19 at 10:00 until the 20 at 16:00 UTC


191000Z 1910/2016 15006KT 9999 SKC QNH2989INS
BECMG 1914/1915 18010G15KT 9999 SKC QNH2994INS
BECMG 1922/1923 18009KT 9999 SKC QNH2986INS TX39/1921Z TN25/1912Z
No reported NOTAMs for that airfield.



MET'MAP, your aeronautical weather chart ! - Copyright ORBIFLY December 2007 - Disclaimer

ORBIFLY MET'MAP TEAM :

Programming & Development : Alexandra Zaïnal
Concept & Development : Baudouin d'Aumeries
Co-Development & Prog : Marc-Olivier Méhu
Technical & hardware support : Manuel Goepfert

Contact : metmap@orbifly.com




SOURCES & CREDITS :

   NOAA       Earth
Advisory